createdAt,value
2017-07-04T00:01:26.911Z,15.50
2017-07-04T00:03:54.441Z,15.30
2017-07-04T00:06:22.782Z,15.20
2017-07-04T00:08:50.308Z,15.10
2017-07-04T00:11:17.824Z,15.10
2017-07-04T00:13:45.387Z,15.20
2017-07-04T00:16:13.688Z,14.60
2017-07-04T00:18:41.226Z,14.60
2017-07-04T00:21:08.786Z,14.80
2017-07-04T00:23:37.072Z,14.80
2017-07-04T00:26:04.611Z,14.70
2017-07-04T00:28:32.184Z,14.80
2017-07-04T00:30:59.732Z,14.80
2017-07-04T00:33:27.251Z,14.90
2017-07-04T00:35:54.818Z,14.90
2017-07-04T00:38:22.349Z,14.90
2017-07-04T00:40:49.863Z,15.00
2017-07-04T00:43:17.469Z,14.70
2017-07-04T00:45:44.985Z,14.60
2017-07-04T00:48:12.520Z,14.50
2017-07-04T00:50:40.089Z,14.50
2017-07-04T00:53:08.377Z,14.60
2017-07-04T00:55:36.697Z,14.50
2017-07-04T00:58:04.275Z,14.40
2017-07-04T01:00:31.797Z,14.40
2017-07-04T01:02:59.321Z,14.50
2017-07-04T01:05:26.901Z,14.60
2017-07-04T01:07:54.425Z,14.50
2017-07-04T01:10:21.936Z,14.50
2017-07-04T01:12:49.492Z,14.60
2017-07-04T01:15:17.031Z,14.70
2017-07-04T01:17:44.556Z,14.80
2017-07-04T01:20:12.895Z,14.50
2017-07-04T01:22:40.427Z,14.40
2017-07-04T01:25:08.815Z,14.50
2017-07-04T01:27:36.386Z,14.50
2017-07-04T01:30:03.905Z,14.40
2017-07-04T01:32:31.420Z,14.30
2017-07-04T01:34:58.985Z,14.20
2017-07-04T01:37:26.524Z,14.20
2017-07-04T01:39:54.049Z,14.20
2017-07-04T01:42:21.601Z,14.30
2017-07-04T01:44:49.129Z,14.30
2017-07-04T01:47:16.692Z,14.30
2017-07-04T01:49:44.993Z,14.20
2017-07-04T01:52:12.516Z,14.20
2017-07-04T01:54:40.070Z,14.20
2017-07-04T01:57:08.368Z,14.40
2017-07-04T01:59:35.903Z,14.30
2017-07-04T02:02:03.467Z,14.40
2017-07-04T02:04:30.987Z,14.10
2017-07-04T02:06:58.513Z,14.10
2017-07-04T02:09:26.067Z,14.00
2017-07-04T02:11:53.576Z,14.10
2017-07-04T02:14:21.105Z,14.00
2017-07-04T02:16:48.664Z,14.20
2017-07-04T02:19:16.209Z,14.30
2017-07-04T02:21:43.754Z,14.20
2017-07-04T02:24:11.376Z,14.10
2017-07-04T02:26:38.908Z,14.10
2017-07-04T02:29:06.436Z,14.10
2017-07-04T02:31:33.978Z,13.90
2017-07-04T02:34:01.570Z,13.90
2017-07-04T02:36:29.087Z,13.90
2017-07-04T02:38:57.384Z,13.80
2017-07-04T02:41:24.957Z,13.70
2017-07-04T02:43:52.495Z,13.70
2017-07-04T02:46:20.025Z,13.60
2017-07-04T02:48:48.364Z,13.60
2017-07-04T02:51:15.884Z,13.60
2017-07-04T02:53:43.414Z,13.80
2017-07-04T02:56:10.980Z,13.90
2017-07-04T02:58:39.283Z,13.80
2017-07-04T03:01:06.804Z,13.70
2017-07-04T03:03:34.344Z,13.80
2017-07-04T03:06:02.180Z,13.80
2017-07-04T03:08:29.703Z,13.70
2017-07-04T03:10:57.984Z,13.80
2017-07-04T03:13:25.531Z,13.70
2017-07-04T03:15:53.828Z,13.70
2017-07-04T03:18:21.376Z,13.60
2017-07-04T03:20:48.913Z,13.60
2017-07-04T03:23:17.204Z,13.90
2017-07-04T03:25:44.776Z,13.90
2017-07-04T03:28:12.312Z,14.00
2017-07-04T03:30:40.303Z,13.90
2017-07-04T03:33:07.869Z,13.70
2017-07-04T03:35:35.395Z,13.70
2017-07-04T03:38:02.974Z,13.70
2017-07-04T03:40:30.512Z,13.80
2017-07-04T03:42:58.809Z,13.80
2017-07-04T03:45:26.374Z,13.70
2017-07-04T03:47:53.905Z,13.90
2017-07-04T03:50:22.234Z,13.90
2017-07-04T03:52:49.794Z,13.90
2017-07-04T03:55:17.347Z,14.00
2017-07-04T03:57:44.864Z,14.00
2017-07-04T04:00:12.440Z,14.10
2017-07-04T04:02:39.979Z,14.10
2017-07-04T04:05:07.529Z,14.10
2017-07-04T04:07:35.851Z,14.00
2017-07-04T04:10:03.368Z,13.90
2017-07-04T04:12:30.896Z,14.00
2017-07-04T04:14:59.471Z,14.10
2017-07-04T04:17:27.021Z,14.20
2017-07-04T04:19:54.548Z,14.20
2017-07-04T04:22:22.112Z,14.30
2017-07-04T04:24:49.669Z,14.20
2017-07-04T04:27:17.251Z,14.30
2017-07-04T04:29:44.789Z,14.60
2017-07-04T04:32:12.344Z,14.80
2017-07-04T04:34:39.907Z,14.70
2017-07-04T04:37:07.431Z,14.70
2017-07-04T04:39:35.008Z,14.60
2017-07-04T04:42:02.630Z,14.50
2017-07-04T04:44:31.654Z,14.60
2017-07-04T04:46:59.330Z,14.50
2017-07-04T04:49:27.123Z,14.50
2017-07-04T04:51:54.755Z,14.40
2017-07-04T04:54:22.452Z,14.50
2017-07-04T04:56:50.027Z,14.60
2017-07-04T04:59:17.586Z,14.70
2017-07-04T05:01:45.990Z,14.70
2017-07-04T05:04:17.605Z,14.60
2017-07-04T05:06:45.260Z,14.70
2017-07-04T05:09:12.904Z,14.80
2017-07-04T05:11:40.464Z,14.90
2017-07-04T05:14:08.062Z,14.90
2017-07-04T05:16:35.633Z,14.90
2017-07-04T05:19:03.180Z,14.80
2017-07-04T05:21:30.769Z,15.00
2017-07-04T05:23:58.315Z,15.00
2017-07-04T05:26:25.864Z,15.10
2017-07-04T05:28:53.493Z,15.00
2017-07-04T05:31:21.107Z,15.00
2017-07-04T05:33:48.657Z,15.30
2017-07-04T05:36:16.229Z,15.40
2017-07-04T05:38:43.770Z,15.50
2017-07-04T05:41:11.339Z,15.70
2017-07-04T05:43:38.912Z,15.60
2017-07-04T05:46:06.439Z,15.50
2017-07-04T05:48:33.968Z,15.60
2017-07-04T05:51:01.553Z,15.80
2017-07-04T05:53:29.092Z,16.20
2017-07-04T05:55:56.689Z,16.60
2017-07-04T05:58:24.218Z,16.70
2017-07-04T06:00:51.756Z,16.80
2017-07-04T06:03:21.040Z,16.80
2017-07-04T06:05:48.575Z,16.70
2017-07-04T06:08:16.111Z,17.00
2017-07-04T06:10:43.664Z,17.10
2017-07-04T06:13:11.250Z,17.00
2017-07-04T06:15:38.792Z,16.80
2017-07-04T06:18:06.378Z,16.80
2017-07-04T06:20:33.920Z,16.70
2017-07-04T06:23:01.439Z,16.90
2017-07-04T06:25:28.993Z,16.90
2017-07-04T06:27:56.510Z,17.00
2017-07-04T06:30:24.081Z,17.40
2017-07-04T06:32:51.664Z,17.50
2017-07-04T06:35:19.200Z,17.80
2017-07-04T06:37:46.724Z,17.90
2017-07-04T06:40:14.280Z,18.10
2017-07-04T06:42:41.854Z,18.20
2017-07-04T06:45:09.453Z,18.50
2017-07-04T06:47:36.993Z,18.70
2017-07-04T06:50:05.293Z,18.90
2017-07-04T06:52:32.866Z,18.90
2017-07-04T06:55:00.396Z,19.00
2017-07-04T06:57:27.944Z,19.00
2017-07-04T06:59:56.284Z,19.50
2017-07-04T07:02:23.834Z,19.40
2017-07-04T07:04:51.407Z,19.30
2017-07-04T07:07:18.944Z,19.30
2017-07-04T07:09:46.484Z,19.60
2017-07-04T07:12:14.063Z,19.90
2017-07-04T07:14:41.617Z,20.00
2017-07-04T07:17:09.185Z,19.80
2017-07-04T07:19:36.741Z,19.80
2017-07-04T07:22:04.268Z,20.10
2017-07-04T07:24:31.836Z,20.20
2017-07-04T07:26:59.389Z,20.10
2017-07-04T07:29:26.920Z,20.30
2017-07-04T07:31:55.276Z,20.70
2017-07-04T07:34:22.793Z,20.60
2017-07-04T07:36:50.309Z,20.60
2017-07-04T07:39:18.654Z,20.80
2017-07-04T07:41:46.188Z,20.70
2017-07-04T07:44:13.729Z,20.80
2017-07-04T07:46:41.336Z,20.90
2017-07-04T07:49:08.884Z,20.90
2017-07-04T07:51:36.415Z,20.90
2017-07-04T07:54:03.982Z,21.00
2017-07-04T07:56:31.505Z,21.10
2017-07-04T07:58:59.020Z,21.10
2017-07-04T08:01:26.616Z,21.30
2017-07-04T08:03:54.160Z,21.30
2017-07-04T08:06:22.480Z,21.90
2017-07-04T08:08:50.049Z,21.90
2017-07-04T08:11:17.624Z,22.20
2017-07-04T08:13:45.233Z,22.60
2017-07-04T08:16:12.793Z,22.80
2017-07-04T08:18:40.342Z,23.30
2017-07-04T08:21:07.956Z,23.30
2017-07-04T08:23:35.512Z,23.10
2017-07-04T08:26:03.062Z,23.00
2017-07-04T08:28:30.648Z,23.10
2017-07-04T08:30:58.194Z,23.10
2017-07-04T08:33:25.728Z,23.20
2017-07-04T08:35:53.280Z,23.20
2017-07-04T08:38:20.796Z,23.00
2017-07-04T08:40:49.137Z,22.80
2017-07-04T08:43:16.665Z,22.70
2017-07-04T08:45:44.220Z,22.60
2017-07-04T08:48:11.796Z,22.60
2017-07-04T08:50:39.329Z,23.00
2017-07-04T08:53:06.879Z,23.20
2017-07-04T08:55:34.484Z,23.10
2017-07-04T08:58:02.014Z,23.20
2017-07-04T09:00:29.532Z,23.20
2017-07-04T09:02:57.109Z,23.80
2017-07-04T09:05:24.697Z,24.20
2017-07-04T09:07:52.234Z,24.60
2017-07-04T09:10:19.819Z,24.70
2017-07-04T09:12:47.360Z,24.40
2017-07-04T09:15:14.889Z,24.50
2017-07-04T09:17:42.483Z,24.70
2017-07-04T09:20:10.066Z,24.80
2017-07-04T09:22:37.688Z,24.90
2017-07-04T09:25:05.292Z,24.80
2017-07-04T09:27:32.847Z,24.60
2017-07-04T09:30:00.423Z,24.80
2017-07-04T09:32:28.782Z,25.30
2017-07-04T09:34:56.310Z,25.20
2017-07-04T09:37:23.840Z,25.10
2017-07-04T09:39:51.412Z,25.40
2017-07-04T09:42:18.937Z,25.90
2017-07-04T09:44:47.240Z,26.30
2017-07-04T09:47:14.857Z,26.20
2017-07-04T09:49:42.402Z,25.90
2017-07-04T09:52:09.920Z,25.80
2017-07-04T09:54:37.512Z,25.40
2017-07-04T09:57:05.050Z,25.50
2017-07-04T09:59:32.648Z,25.90
2017-07-04T10:02:00.172Z,26.20
2017-07-04T10:04:27.705Z,26.50
2017-07-04T10:06:55.305Z,26.70
2017-07-04T10:09:22.860Z,26.90
2017-07-04T10:11:50.416Z,27.00
2017-07-04T10:14:17.993Z,27.30
2017-07-04T10:16:45.553Z,27.50
2017-07-04T10:19:13.137Z,28.00
2017-07-04T10:21:43.040Z,27.50
2017-07-04T10:24:10.715Z,27.50
2017-07-04T10:26:38.321Z,27.40
2017-07-04T10:29:05.872Z,27.20
2017-07-04T10:31:33.401Z,26.70
2017-07-04T10:34:01.114Z,26.40
2017-07-04T10:36:28.795Z,26.40
2017-07-04T10:38:56.409Z,26.30
2017-07-04T10:41:23.995Z,26.20
2017-07-04T10:43:51.553Z,26.10
2017-07-04T10:46:19.210Z,26.10
2017-07-04T10:48:46.824Z,25.90
2017-07-04T10:51:14.388Z,25.70
2017-07-04T10:53:42.338Z,25.40
2017-07-04T10:56:09.971Z,26.00
2017-07-04T10:58:37.562Z,26.60
2017-07-04T11:01:05.190Z,27.10
2017-07-04T11:03:33.524Z,27.60
2017-07-04T11:06:01.100Z,27.60
2017-07-04T11:08:28.654Z,27.20
2017-07-04T11:10:56.193Z,26.60
2017-07-04T11:13:23.918Z,26.40
2017-07-04T11:15:51.509Z,26.90
2017-07-04T11:18:19.084Z,27.60
2017-07-04T11:20:46.700Z,28.10
2017-07-04T11:23:14.289Z,28.50
2017-07-04T11:25:41.888Z,28.20
2017-07-04T11:28:10.324Z,28.40
2017-07-04T11:30:37.941Z,28.40
2017-07-04T11:33:06.484Z,29.20
2017-07-04T11:35:34.144Z,29.10
2017-07-04T11:38:01.736Z,28.80
2017-07-04T11:40:29.317Z,28.60
2017-07-04T11:42:56.905Z,28.60
2017-07-04T11:45:24.463Z,28.20
2017-07-04T11:47:53.269Z,27.80
2017-07-04T11:50:21.831Z,27.90
2017-07-04T11:52:50.399Z,28.10
2017-07-04T11:55:18.015Z,28.00
2017-07-04T11:57:46.362Z,29.00
2017-07-04T12:00:13.947Z,29.00
2017-07-04T12:02:42.317Z,29.20
2017-07-04T12:05:09.921Z,29.10
2017-07-04T12:07:37.492Z,29.00
2017-07-04T12:10:05.071Z,29.20
2017-07-04T12:12:32.685Z,29.30
2017-07-04T12:15:00.245Z,29.30
2017-07-04T12:17:27.964Z,29.30
2017-07-04T12:19:55.553Z,29.20
2017-07-04T12:22:23.922Z,29.50
2017-07-04T12:24:52.281Z,29.60
2017-07-04T12:27:20.050Z,29.60
2017-07-04T12:29:48.265Z,29.50
2017-07-04T12:32:15.818Z,29.40
2017-07-04T12:34:43.454Z,29.20
2017-07-04T12:37:11.060Z,29.30
2017-07-04T12:39:38.631Z,29.30
2017-07-04T12:42:07.022Z,29.10
2017-07-04T12:44:34.617Z,28.90
2017-07-04T12:47:02.915Z,28.80
2017-07-04T12:49:30.484Z,28.70
2017-07-04T12:51:58.096Z,28.80
2017-07-04T12:54:26.421Z,28.70
2017-07-04T12:56:54.594Z,28.70
2017-07-04T12:59:22.157Z,28.60
2017-07-04T13:01:49.672Z,28.40
2017-07-04T13:04:17.258Z,28.10
2017-07-04T13:06:44.847Z,27.90
2017-07-04T13:09:12.368Z,27.70
2017-07-04T13:11:39.948Z,27.40
2017-07-04T13:14:07.543Z,27.30
2017-07-04T13:16:35.077Z,27.20
2017-07-04T13:19:03.340Z,27.00
2017-07-04T13:21:30.927Z,26.90
2017-07-04T13:23:58.477Z,26.70
2017-07-04T13:26:26.041Z,26.70
2017-07-04T13:28:53.579Z,26.40
2017-07-04T13:31:21.128Z,26.40
2017-07-04T13:33:48.710Z,26.50
2017-07-04T13:36:16.259Z,26.40
2017-07-04T13:38:43.828Z,26.50
2017-07-04T13:41:11.363Z,26.60
2017-07-04T13:43:39.410Z,26.60
2017-07-04T13:46:06.970Z,26.40
2017-07-04T13:48:34.599Z,26.30
2017-07-04T13:51:02.250Z,26.30
2017-07-04T13:53:29.797Z,26.10
2017-07-04T13:55:57.388Z,26.10
2017-07-04T13:58:24.968Z,26.00
2017-07-04T14:00:52.633Z,26.00
2017-07-04T14:03:20.180Z,26.10
2017-07-04T14:05:47.771Z,26.10
2017-07-04T14:08:15.330Z,26.20
2017-07-04T14:10:42.879Z,26.10
2017-07-04T14:13:10.455Z,26.10
2017-07-04T14:15:37.985Z,26.00
2017-07-04T14:18:05.517Z,25.90
2017-07-04T14:20:33.096Z,25.80
2017-07-04T14:23:00.634Z,25.70
2017-07-04T14:25:28.199Z,25.70
2017-07-04T14:27:55.816Z,25.70
2017-07-04T14:30:23.423Z,25.80
2017-07-04T14:32:50.972Z,25.90
2017-07-04T14:35:18.795Z,26.00
2017-07-04T14:37:46.335Z,26.00
2017-07-04T14:40:13.904Z,26.10
2017-07-04T14:42:41.450Z,25.90
2017-07-04T14:45:08.980Z,25.80
2017-07-04T14:47:36.553Z,25.90
2017-07-04T14:50:04.076Z,25.80
2017-07-04T14:52:32.368Z,25.70
2017-07-04T14:54:59.961Z,25.60
2017-07-04T14:57:27.544Z,25.60
2017-07-04T14:59:55.142Z,25.70
2017-07-04T15:02:22.876Z,25.80
2017-07-04T15:04:50.411Z,25.80
2017-07-04T15:07:18.008Z,25.70
2017-07-04T15:09:45.606Z,25.80
2017-07-04T15:12:13.143Z,25.70
2017-07-04T15:14:40.668Z,25.60
2017-07-04T15:17:09.052Z,25.70
2017-07-04T15:19:37.342Z,25.60
2017-07-04T15:22:04.952Z,25.60
2017-07-04T15:24:32.473Z,25.50
2017-07-04T15:27:00.029Z,25.30
2017-07-04T15:29:27.645Z,25.30
2017-07-04T15:31:55.169Z,25.30
2017-07-04T15:34:22.737Z,25.30
2017-07-04T15:36:50.312Z,25.20
2017-07-04T15:39:17.873Z,25.30
2017-07-04T15:41:45.402Z,25.50
2017-07-04T15:44:13.768Z,25.40
2017-07-04T15:46:41.342Z,25.40
2017-07-04T15:49:09.038Z,25.30
2017-07-04T15:51:36.529Z,25.30
2017-07-04T15:54:04.122Z,25.20
2017-07-04T15:56:31.692Z,25.20
2017-07-04T15:58:59.273Z,25.20
2017-07-04T16:01:27.604Z,25.20
2017-07-04T16:03:55.196Z,25.10
2017-07-04T16:06:22.749Z,25.10
2017-07-04T16:08:50.305Z,25.00
2017-07-04T16:11:17.912Z,24.90
2017-07-04T16:13:45.444Z,25.10
2017-07-04T16:16:14.501Z,24.90
2017-07-04T16:18:42.058Z,24.80
2017-07-04T16:21:09.577Z,24.90
2017-07-04T16:23:37.139Z,24.90
2017-07-04T16:26:05.499Z,24.90
2017-07-04T16:28:33.848Z,25.00
2017-07-04T16:31:01.412Z,24.90
2017-07-04T16:33:28.941Z,24.80
2017-07-04T16:35:56.520Z,24.80
2017-07-04T16:38:24.065Z,24.70
2017-07-04T16:40:51.603Z,24.70
2017-07-04T16:43:19.227Z,24.60
2017-07-04T16:45:46.765Z,24.60
2017-07-04T16:48:15.417Z,24.70
2017-07-04T16:50:43.000Z,24.60
2017-07-04T16:53:10.562Z,24.80
2017-07-04T16:55:38.096Z,24.70
2017-07-04T16:58:05.681Z,24.80
2017-07-04T17:00:33.985Z,24.60
2017-07-04T17:03:01.531Z,24.60
2017-07-04T17:05:29.861Z,24.40
2017-07-04T17:07:57.391Z,24.40
2017-07-04T17:10:24.957Z,24.50
2017-07-04T17:12:52.481Z,24.30
2017-07-04T17:15:20.773Z,24.40
2017-07-04T17:17:48.727Z,24.30
2017-07-04T17:20:17.060Z,24.20
2017-07-04T17:22:44.589Z,24.20
2017-07-04T17:25:12.181Z,24.20
2017-07-04T17:27:39.722Z,24.30
2017-07-04T17:30:07.249Z,24.30
2017-07-04T17:32:34.812Z,24.20
2017-07-04T17:35:02.364Z,24.10
2017-07-04T17:37:29.924Z,24.10
2017-07-04T17:39:57.606Z,24.10
2017-07-04T17:42:25.161Z,24.10
2017-07-04T17:44:52.778Z,24.10
2017-07-04T17:47:20.350Z,24.20
2017-07-04T17:49:47.900Z,24.10
2017-07-04T17:52:15.481Z,24.10
2017-07-04T17:54:43.032Z,24.00
2017-07-04T17:57:10.574Z,24.00
2017-07-04T17:59:38.156Z,23.90
2017-07-04T18:02:05.714Z,23.90
2017-07-04T18:04:33.264Z,23.80
2017-07-04T18:07:00.824Z,23.80
2017-07-04T18:09:28.379Z,23.70
2017-07-04T18:11:55.977Z,23.70
2017-07-04T18:14:23.530Z,23.60
2017-07-04T18:16:51.052Z,23.60
2017-07-04T18:19:18.628Z,23.50
2017-07-04T18:21:46.183Z,23.50
2017-07-04T18:24:13.778Z,23.30
2017-07-04T18:26:41.307Z,23.30
2017-07-04T18:29:08.892Z,23.10
2017-07-04T18:31:36.427Z,23.10
2017-07-04T18:34:03.952Z,23.00
2017-07-04T18:36:31.533Z,23.00
2017-07-04T18:38:59.071Z,22.90
2017-07-04T18:41:26.604Z,22.80
2017-07-04T18:43:54.957Z,22.60
2017-07-04T18:46:22.476Z,22.60
2017-07-04T18:48:50.012Z,22.60
2017-07-04T18:51:17.636Z,22.50
2017-07-04T18:53:45.164Z,22.40
2017-07-04T18:56:12.709Z,22.40
2017-07-04T18:58:40.271Z,22.30
2017-07-04T19:01:07.804Z,22.10
2017-07-04T19:03:35.332Z,22.00
2017-07-04T19:06:02.904Z,21.90
2017-07-04T19:08:31.187Z,21.70
2017-07-04T19:10:59.156Z,21.70
2017-07-04T19:13:26.747Z,21.60
2017-07-04T19:15:54.285Z,21.40
2017-07-04T19:18:21.799Z,21.30
2017-07-04T19:20:49.361Z,21.30
2017-07-04T19:23:16.908Z,21.20
2017-07-04T19:25:45.230Z,20.80
2017-07-04T19:28:12.819Z,20.80
2017-07-04T19:30:40.938Z,20.70
2017-07-04T19:33:09.248Z,20.40
2017-07-04T19:35:36.817Z,20.40
2017-07-04T19:38:04.380Z,20.40
2017-07-04T19:40:31.996Z,20.30
2017-07-04T19:42:59.568Z,20.20
2017-07-04T19:45:27.165Z,20.20
2017-07-04T19:47:54.791Z,20.10
2017-07-04T19:50:22.356Z,20.00
2017-07-04T19:52:49.995Z,20.10
2017-07-04T19:55:17.541Z,20.20
2017-07-04T19:57:45.144Z,20.10
2017-07-04T20:00:12.702Z,20.10
2017-07-04T20:02:40.266Z,19.90
2017-07-04T20:05:07.926Z,19.90
2017-07-04T20:07:35.507Z,19.80
2017-07-04T20:10:03.085Z,19.70
2017-07-04T20:12:30.684Z,19.50
2017-07-04T20:14:58.262Z,19.50
2017-07-04T20:17:25.827Z,19.30
2017-07-04T20:19:53.397Z,19.20
2017-07-04T20:22:20.952Z,19.20
2017-07-04T20:24:48.483Z,19.10
2017-07-04T20:27:16.037Z,19.10
2017-07-04T20:29:43.636Z,19.10
2017-07-04T20:32:12.058Z,19.00
2017-07-04T20:34:39.592Z,18.90
2017-07-04T20:37:07.952Z,19.00
2017-07-04T20:39:35.485Z,18.90
2017-07-04T20:42:03.008Z,18.90
2017-07-04T20:44:31.385Z,18.80
2017-07-04T20:46:58.910Z,18.80
2017-07-04T20:49:26.540Z,18.80
2017-07-04T20:51:54.152Z,18.80
2017-07-04T20:54:21.703Z,18.80
2017-07-04T20:56:50.017Z,18.70
2017-07-04T20:59:17.606Z,18.60
2017-07-04T21:01:45.149Z,18.60
2017-07-04T21:04:12.734Z,18.60
2017-07-04T21:06:40.329Z,18.60
2017-07-04T21:09:07.888Z,18.50
2017-07-04T21:11:35.437Z,18.50
2017-07-04T21:14:03.764Z,18.50
2017-07-04T21:16:31.305Z,18.50
2017-07-04T21:18:59.088Z,18.40
2017-07-04T21:21:26.680Z,18.40
2017-07-04T21:23:54.977Z,18.30
2017-07-04T21:26:22.557Z,18.20
2017-07-04T21:28:50.136Z,18.20
2017-07-04T21:31:17.680Z,18.20
2017-07-04T21:33:45.272Z,18.10
2017-07-04T21:36:12.836Z,18.00
2017-07-04T21:38:41.148Z,18.10
2017-07-04T21:41:08.772Z,18.00
2017-07-04T21:43:36.293Z,18.10
2017-07-04T21:46:03.842Z,18.00
2017-07-04T21:48:31.433Z,18.00
2017-07-04T21:50:58.989Z,17.90
2017-07-04T21:53:26.529Z,17.80
2017-07-04T21:55:54.124Z,17.70
2017-07-04T21:58:21.667Z,17.70
2017-07-04T22:00:49.261Z,17.70
2017-07-04T22:03:16.849Z,17.60
2017-07-04T22:05:44.420Z,17.60
2017-07-04T22:08:12.538Z,17.60
2017-07-04T22:10:40.475Z,17.70
2017-07-04T22:13:08.038Z,17.60
2017-07-04T22:15:35.598Z,17.50
2017-07-04T22:18:03.178Z,17.60
2017-07-04T22:20:30.723Z,17.80
2017-07-04T22:22:58.284Z,17.80
2017-07-04T22:25:25.882Z,17.70
2017-07-04T22:27:53.425Z,17.50
2017-07-04T22:30:20.944Z,17.30
2017-07-04T22:32:48.512Z,17.30
2017-07-04T22:35:16.033Z,17.40
2017-07-04T22:37:43.589Z,17.30
2017-07-04T22:40:11.166Z,17.40
2017-07-04T22:42:38.701Z,17.30
2017-07-04T22:45:06.223Z,17.40
2017-07-04T22:47:33.825Z,17.40
2017-07-04T22:50:01.353Z,17.50
2017-07-04T22:52:28.885Z,17.40
2017-07-04T22:54:57.230Z,17.20
2017-07-04T22:57:24.756Z,17.20
2017-07-04T22:59:52.291Z,17.10
2017-07-04T23:02:19.863Z,17.10
2017-07-04T23:04:47.392Z,17.10
2017-07-04T23:07:15.676Z,17.10
2017-07-04T23:09:43.997Z,17.00
2017-07-04T23:12:11.520Z,17.00
2017-07-04T23:14:39.110Z,16.90
2017-07-04T23:17:06.644Z,17.00
2017-07-04T23:19:34.173Z,17.10
2017-07-04T23:22:01.739Z,17.00
2017-07-04T23:24:30.028Z,16.80
2017-07-04T23:26:57.560Z,16.80
2017-07-04T23:29:25.900Z,16.90
2017-07-04T23:31:53.448Z,16.90
2017-07-04T23:34:20.981Z,16.90
2017-07-04T23:36:48.564Z,16.80
2017-07-04T23:39:16.105Z,16.70
2017-07-04T23:41:43.630Z,16.70
2017-07-04T23:44:11.238Z,16.60
2017-07-04T23:46:38.768Z,16.50
2017-07-04T23:49:06.297Z,16.60
2017-07-04T23:51:33.886Z,16.70
2017-07-04T23:54:01.416Z,16.70
2017-07-04T23:56:29.713Z,16.70
2017-07-04T23:58:57.309Z,16.70
